Wetterdaten: aktuell Dienstag, 29.11.2022 20:20
Datum Zeit Temp. A. Temp. A. min Temp. A. max Feuchte A. Luftdruck Regen Wind Richtung Richtung Sonnenschein UV Solar Windben
29.11.2022 20:20 5,9 C 5,9 C 5,9 C 96 % 1021,8 hPa 0,0 l/m 4,8 km/h (1 Bft) W-NW 292 0 min 0,0 UV-I 0 W/m 8,0 km/h (2 Bft)
29.11.2022 20:15 5,9 C 5,9 C 5,9 C 96 % 1021,8 hPa 0,0 l/m 4,8 km/h (1 Bft) W 270 0 min 0,0 UV-I 0 W/m 9,7 km/h (2 Bft)
29.11.2022 20:10 5,9 C 5,9 C 5,9 C 96 % 1021,8 hPa 0,0 l/m 4,8 km/h (1 Bft) W 270 0 min 0,0 UV-I 0 W/m 9,7 km/h (2 Bft)
29.11.2022 20:05 5,9 C 5,9 C 6,0 C 96 % 1021,7 hPa 0,0 l/m 4,8 km/h (1 Bft) W 270 0 min 0,0 UV-I 0 W/m 9,7 km/h (2 Bft)
29.11.2022 20:00 5,9 C 5,9 C 5,9 C 96 % 1021,6 hPa 0,0 l/m 6,4 km/h (2 Bft) W 270 0 min 0,0 UV-I 0 W/m 9,7 km/h (2 Bft)
29.11.2022 19:55 5,9 C 5,8 C 5,9 C 96 % 1021,7 hPa 0,0 l/m 6,4 km/h (2 Bft) W 270 0 min 0,0 UV-I 0 W/m 11,3 km/h (2 Bft)
29.11.2022 19:50 5,8 C 5,7 C 5,8 C 96 % 1021,7 hPa 0,0 l/m 6,4 km/h (2 Bft) W 270 0 min 0,0 UV-I 0 W/m 11,3 km/h (2 Bft)
29.11.2022 19:45 5,8 C 5,7 C 5,8 C 96 % 1021,7 hPa 0,0 l/m 4,8 km/h (1 Bft) W 270 0 min 0,0 UV-I 0 W/m 9,7 km/h (2 Bft)
29.11.2022 19:40 5,8 C 5,6 C 5,8 C 96 % 1021,6 hPa 0,0 l/m 8,0 km/h (2 Bft) W 270 0 min 0,0 UV-I 0 W/m 11,3 km/h (2 Bft)
29.11.2022 19:35 5,6 C 5,6 C 5,7 C 95 % 1021,6 hPa 0,0 l/m 4,8 km/h (1 Bft) W 270 0 min 0,0 UV-I 0 W/m 6,4 km/h (2 Bft)
29.11.2022 19:30 5,7 C 5,7 C 5,8 C 95 % 1021,6 hPa 0,0 l/m 4,8 km/h (1 Bft) W 270 0 min 0,0 UV-I 0 W/m 9,7 km/h (2 Bft)
29.11.2022 19:25 5,8 C 5,8 C 5,9 C 95 % 1021,7 hPa 0,0 l/m 6,4 km/h (2 Bft) W-SW 247 0 min 0,0 UV-I 0 W/m 8,0 km/h (2 Bft)
29.11.2022 19:20 5,9 C 5,8 C 5,9 C 95 % 1021,6 hPa 0,0 l/m 4,8 km/h (1 Bft) W-SW 247 0 min 0,0 UV-I 0 W/m 8,0 km/h (2 Bft)
29.11.2022 19:15 5,8 C 5,8 C 5,9 C 95 % 1021,5 hPa 0,0 l/m 0,0 km/h (0 Bft) N 0 0 min 0,0 UV-I 0 W/m 0,0 km/h (0 Bft)
29.11.2022 19:10 5,9 C 5,9 C 6,2 C 95 % 1021,5 hPa 0,0 l/m 0,0 km/h (0 Bft) W-SW 247 0 min 0,0 UV-I 0 W/m 3,2 km/h (1 Bft)
29.11.2022 19:05 6,2 C 6,2 C 6,4 C 95 % 1021,4 hPa 0,0 l/m 0,0 km/h (0 Bft) W-SW 247 0 min 0,0 UV-I 0 W/m 6,4 km/h (2 Bft)
29.11.2022 19:00 6,3 C 6,3 C 6,5 C 95 % 1021,4 hPa 0,0 l/m 1,6 km/h (1 Bft) W-SW 247 0 min 0,0 UV-I 0 W/m 3,2 km/h (1 Bft)
29.11.2022 18:55 6,5 C 6,4 C 6,5 C 95 % 1021,4 hPa 0,0 l/m 3,2 km/h (1 Bft) W-SW 247 0 min 0,0 UV-I 0 W/m 4,8 km/h (1 Bft)
29.11.2022 18:50 6,5 C 6,4 C 6,5 C 95 % 1021,4 hPa 0,0 l/m 3,2 km/h (1 Bft) W-SW 247 0 min 0,0 UV-I 0 W/m 6,4 km/h (2 Bft)
29.11.2022 18:45 6,4 C 6,4 C 6,5 C 95 % 1021,4 hPa 0,0 l/m 1,6 km/h (1 Bft) W-SW 247 0 min 0,0 UV-I 0 W/m 4,8 km/h (1 Bft)
29.11.2022 18:40 6,5 C 6,5 C 6,6 C 95 % 1021,3 hPa 0,0 l/m 3,2 km/h (1 Bft) W-SW 247 0 min 0,0 UV-I 0 W/m 4,8 km/h (1 Bft)
29.11.2022 18:35 6,6 C 6,6 C 6,7 C 95 % 1021,3 hPa 0,0 l/m 4,8 km/h (1 Bft) W-SW 247 0 min 0,0 UV-I 0 W/m 6,4 km/h (2 Bft)
29.11.2022 18:30 6,7 C 6,7 C 6,8 C 95 % 1021,3 hPa 0,0 l/m 6,4 km/h (2 Bft) SW 225 0 min 0,0 UV-I 0 W/m 8,0 km/h (2 Bft)
29.11.2022 18:25 6,7 C 6,7 C 6,9 C 95 % 1021,3 hPa 0,0 l/m 8,0 km/h (2 Bft) W-SW 247 0 min 0,0 UV-I 0 W/m 11,3 km/h (2 Bft)
29.11.2022 18:20 6,9 C 6,9 C 7,2 C 95 % 1021,3 hPa 0,0 l/m 6,4 km/h (2 Bft) W-SW 247 0 min 0,0 UV-I 0 W/m 11,3 km/h (2 Bft)
29.11.2022 18:15 7,2 C 7,2 C 7,4 C 95 % 1021,3 hPa 0,0 l/m 6,4 km/h (2 Bft) SW 225 0 min 0,0 UV-I 0 W/m 6,4 km/h (2 Bft)
29.11.2022 18:10 7,4 C 7,4 C 7,5 C 95 % 1021,2 hPa 0,0 l/m 6,4 km/h (2 Bft) SW 225 0 min 0,0 UV-I 0 W/m 8,0 km/h (2 Bft)
29.11.2022 18:05 7,5 C 7,4 C 7,6 C 95 % 1021,3 hPa 0,0 l/m 6,4 km/h (2 Bft) W 270 0 min 0,0 UV-I 0 W/m 11,3 km/h (2 Bft)
29.11.2022 18:00 7,6 C 7,6 C 7,6 C 95 % 1021,3 hPa 0,0 l/m 6,4 km/h (2 Bft) W 270 0 min 0,0 UV-I 0 W/m 9,7 km/h (2 Bft)
29.11.2022 17:55 7,6 C 7,6 C 7,6 C 96 % 1021,2 hPa 0,0 l/m 4,8 km/h (1 Bft) W 270 0 min 0,0 UV-I 0 W/m 6,4 km/h (2 Bft)
29.11.2022 17:50 7,6 C 7,6 C 7,7 C 95 % 1021,3 hPa 0,0 l/m 3,2 km/h (1 Bft) W 270 0 min 0,0 UV-I 0 W/m 6,4 km/h (2 Bft)
29.11.2022 17:45 7,6 C 7,6 C 7,7 C 95 % 1021,3 hPa 0,0 l/m 1,6 km/h (1 Bft) W 270 0 min 0,0 UV-I 0 W/m 6,4 km/h (2 Bft)
29.11.2022 17:40 7,7 C 7,6 C 7,7 C 95 % 1021,3 hPa 0,0 l/m 0,0 km/h (0 Bft) N 0 0 min 0,0 UV-I 0 W/m 0,0 km/h (0 Bft)
29.11.2022 17:35 7,7 C 7,7 C 7,7 C 95 % 1021,3 hPa 0,0 l/m 1,6 km/h (1 Bft) W 270 0 min 0,0 UV-I 0 W/m 6,4 km/h (2 Bft)
29.11.2022 17:30 7,7 C 7,7 C 7,7 C 95 % 1021,3 hPa 0,0 l/m 0,0 km/h (0 Bft) W 270 0 min 0,0 UV-I 0 W/m 1,6 km/h (1 Bft)
29.11.2022 17:25 7,7 C 7,7 C 7,7 C 95 % 1021,3 hPa 0,0 l/m 1,6 km/h (1 Bft) W 270 0 min 0,0 UV-I 0 W/m 4,8 km/h (1 Bft)
29.11.2022 17:20 7,7 C 7,7 C 7,7 C 96 % 1021,2 hPa 0,0 l/m 1,6 km/h (1 Bft) W 270 0 min 0,0 UV-I 0 W/m 3,2 km/h (1 Bft)
29.11.2022 17:15 7,7 C 7,7 C 7,7 C 95 % 1021,3 hPa 0,0 l/m 3,2 km/h (1 Bft) W 270 0 min 0,0 UV-I 0 W/m 4,8 km/h (1 Bft)
29.11.2022 17:10 7,7 C 7,7 C 7,7 C 96 % 1021,3 hPa 0,0 l/m 3,2 km/h (1 Bft) W 270 0 min 0,0 UV-I 0 W/m 6,4 km/h (2 Bft)
29.11.2022 17:05 7,7 C 7,7 C 7,7 C 96 % 1021,2 hPa 0,0 l/m 3,2 km/h (1 Bft) W 270 0 min 0,0 UV-I 0 W/m 6,4 km/h (2 Bft)
29.11.2022 17:00 7,7 C 7,7 C 7,7 C 95 % 1021,2 hPa 0,0 l/m 3,2 km/h (1 Bft) W 270 0 min 0,0 UV-I 0 W/m 6,4 km/h (2 Bft)
29.11.2022 16:55 7,7 C 7,7 C 7,8 C 96 % 1021,1 hPa 0,0 l/m 4,8 km/h (1 Bft) W 270 0 min 0,0 UV-I 0 W/m 6,4 km/h (2 Bft)
29.11.2022 16:50 7,7 C 7,7 C 7,8 C 96 % 1021,1 hPa 0,0 l/m 6,4 km/h (2 Bft) W 270 0 min 0,0 UV-I 0 W/m 9,7 km/h (2 Bft)
29.11.2022 16:45 7,8 C 7,7 C 7,8 C 96 % 1021,1 hPa 0,0 l/m 4,8 km/h (1 Bft) W-NW 292 0 min 0,0 UV-I 0 W/m 9,7 km/h (2 Bft)
29.11.2022 16:40 7,7 C 7,7 C 7,8 C 96 % 1021,0 hPa 0,0 l/m 1,6 km/h (1 Bft) N-NW 337 0 min 0,0 UV-I 0 W/m 4,8 km/h (1 Bft)
29.11.2022 16:35 7,8 C 7,7 C 7,8 C 96 % 1020,9 hPa 0,0 l/m 3,2 km/h (1 Bft) N-NW 337 0 min 0,0 UV-I 0 W/m 4,8 km/h (1 Bft)
29.11.2022 16:30 7,7 C 7,7 C 7,8 C 96 % 1020,9 hPa 0,0 l/m 3,2 km/h (1 Bft) N-NW 337 0 min 0,0 UV-I 0 W/m 8,0 km/h (2 Bft)
29.11.2022 16:25 7,7 C 7,7 C 7,7 C 96 % 1020,8 hPa 0,0 l/m 0,0 km/h (0 Bft) N-NO 22 0 min 0,0 UV-I 0 W/m 3,2 km/h (1 Bft)
29.11.2022 16:20 7,7 C 7,7 C 7,7 C 95 % 1020,8 hPa 0,0 l/m 0,0 km/h (0 Bft) N 0 0 min 0,0 UV-I 0 W/m 0,0 km/h (0 Bft)
29.11.2022 16:15 7,7 C 7,7 C 7,7 C 95 % 1020,8 hPa 0,0 l/m 0,0 km/h (0 Bft) N-NO 22 0 min 0,0 UV-I 0 W/m 3,2 km/h (1 Bft)
29.11.2022 16:10 7,7 C 7,6 C 7,7 C 95 % 1020,9 hPa 0,0 l/m 0,0 km/h (0 Bft) N 0 0 min 0,0 UV-I 0 W/m 0,0 km/h (0 Bft)
29.11.2022 16:05 7,7 C 7,6 C 7,7 C 95 % 1020,8 hPa 0,0 l/m 3,2 km/h (1 Bft) N-NO 22 0 min 0,0 UV-I 0 W/m 8,0 km/h (2 Bft)
29.11.2022 16:00 7,7 C 7,6 C 7,7 C 95 % 1020,7 hPa 0,0 l/m 4,8 km/h (1 Bft) N-NO 22 0 min 0,0 UV-I 0 W/m 6,4 km/h (2 Bft)
29.11.2022 15:55 7,6 C 7,6 C 7,7 C 95 % 1020,8 hPa 0,0 l/m 4,8 km/h (1 Bft) N 360 0 min 0,0 UV-I 0 W/m 14,5 km/h (3 Bft)
29.11.2022 15:50 7,7 C 7,7 C 7,8 C 96 % 1020,7 hPa 0,0 l/m 8,0 km/h (2 Bft) N-NO 22 0 min 0,0 UV-I 0 W/m 14,5 km/h (3 Bft)
29.11.2022 15:45 7,8 C 7,8 C 7,8 C 96 % 1020,6 hPa 0,0 l/m 1,6 km/h (1 Bft) W-NW 292 0 min 0,0 UV-I 0 W/m 8,0 km/h (2 Bft)
29.11.2022 15:40 7,8 C 7,8 C 7,8 C 96 % 1020,6 hPa 0,0 l/m 3,2 km/h (1 Bft) NW 315 0 min 0,0 UV-I 0 W/m 8,0 km/h (2 Bft)
29.11.2022 15:35 7,8 C 7,8 C 7,8 C 96 % 1020,6 hPa 0,0 l/m 3,2 km/h (1 Bft) NW 315 0 min 0,0 UV-I 5 W/m 6,4 km/h (2 Bft)
29.11.2022 15:30 7,8 C 7,8 C 7,8 C 96 % 1020,6 hPa 0,0 l/m 4,8 km/h (1 Bft) NW 315 0 min 0,0 UV-I 7 W/m 8,0 km/h (2 Bft)
29.11.2022 15:25 7,8 C 7,8 C 7,9 C 96 % 1020,5 hPa 0,0 l/m 6,4 km/h (2 Bft) NW 315 0 min 0,0 UV-I 9 W/m 9,7 km/h (2 Bft)
29.11.2022 15:20 7,9 C 7,9 C 7,9 C 95 % 1020,5 hPa 0,0 l/m 4,8 km/h (1 Bft) NW 315 0 min 0,0 UV-I 7 W/m 12,9 km/h (3 Bft)
29.11.2022 15:15 7,9 C 7,9 C 7,9 C 95 % 1020,5 hPa 0,0 l/m 3,2 km/h (1 Bft) W-NW 292 0 min 0,0 UV-I 7 W/m 6,4 km/h (2 Bft)
29.11.2022 15:10 7,9 C 7,9 C 8,1 C 95 % 1020,5 hPa 0,0 l/m 4,8 km/h (1 Bft) NW 315 0 min 0,0 UV-I 5 W/m 11,3 km/h (2 Bft)
29.11.2022 15:05 8,1 C 8,0 C 8,1 C 95 % 1020,5 hPa 0,0 l/m 4,8 km/h (1 Bft) NW 315 0 min 0,0 UV-I 5 W/m 8,0 km/h (2 Bft)
29.11.2022 15:00 8,1 C 8,1 C 8,2 C 95 % 1020,4 hPa 0,0 l/m 6,4 km/h (2 Bft) W-NW 292 0 min 0,0 UV-I 9 W/m 12,9 km/h (3 Bft)
29.11.2022 14:55 8,1 C 8,1 C 8,2 C 95 % 1020,4 hPa 0,0 l/m 6,4 km/h (2 Bft) W-NW 292 0 min 0,0 UV-I 9 W/m 12,9 km/h (3 Bft)
29.11.2022 14:50 8,2 C 8,2 C 8,2 C 95 % 1020,4 hPa 0,0 l/m 4,8 km/h (1 Bft) W-NW 292 0 min 0,0 UV-I 11 W/m 11,3 km/h (2 Bft)
29.11.2022 14:45 8,2 C 8,2 C 8,2 C 95 % 1020,3 hPa 0,0 l/m 6,4 km/h (2 Bft) W-NW 292 0 min 0,0 UV-I 11 W/m 11,3 km/h (2 Bft)
29.11.2022 14:40 8,2 C 8,2 C 8,2 C 96 % 1020,3 hPa 0,0 l/m 4,8 km/h (1 Bft) W-NW 292 0 min 0,0 UV-I 14 W/m 9,7 km/h (2 Bft)
29.11.2022 14:35 8,2 C 8,2 C 8,2 C 96 % 1020,3 hPa 0,0 l/m 6,4 km/h (2 Bft) NW 315 0 min 0,0 UV-I 19 W/m 12,9 km/h (3 Bft)
29.11.2022 14:30 8,2 C 8,2 C 8,2 C 96 % 1020,3 hPa 0,0 l/m 4,8 km/h (1 Bft) W-NW 292 0 min 0,0 UV-I 19 W/m 9,7 km/h (2 Bft)
29.11.2022 14:25 8,2 C 8,2 C 8,2 C 96 % 1020,2 hPa 0,0 l/m 6,4 km/h (2 Bft) W-NW 292 0 min 0,0 UV-I 23 W/m 9,7 km/h (2 Bft)
29.11.2022 14:20 8,2 C 8,2 C 8,2 C 96 % 1020,1 hPa 0,0 l/m 8,0 km/h (2 Bft) W 270 0 min 0,0 UV-I 32 W/m 12,9 km/h (3 Bft)
29.11.2022 14:15 8,2 C 8,2 C 8,3 C 96 % 1020,1 hPa 0,0 l/m 8,0 km/h (2 Bft) W 270 0 min 0,0 UV-I 35 W/m 11,3 km/h (2 Bft)
29.11.2022 14:10 8,2 C 8,1 C 8,2 C 96 % 1020,1 hPa 0,0 l/m 6,4 km/h (2 Bft) W-NW 292 0 min 0,0 UV-I 32 W/m 11,3 km/h (2 Bft)
29.11.2022 14:05 8,2 C 8,2 C 8,2 C 96 % 1020,0 hPa 0,0 l/m 4,8 km/h (1 Bft) W 270 0 min 0,0 UV-I 32 W/m 9,7 km/h (2 Bft)
29.11.2022 14:00 8,2 C 8,2 C 8,3 C 96 % 1020,1 hPa 0,0 l/m 6,4 km/h (2 Bft) W 270 0 min 0,0 UV-I 30 W/m 9,7 km/h (2 Bft)
29.11.2022 13:55 8,2 C 8,2 C 8,3 C 96 % 1020,0 hPa 0,0 l/m 4,8 km/h (1 Bft) W 270 0 min 0,0 UV-I 35 W/m 6,4 km/h (2 Bft)
29.11.2022 13:50 8,3 C 8,2 C 8,3 C 96 % 1020,0 hPa 0,0 l/m 6,4 km/h (2 Bft) W 270 0 min 0,0 UV-I 32 W/m 11,3 km/h (2 Bft)
29.11.2022 13:45 8,2 C 8,2 C 8,3 C 96 % 1020,0 hPa 0,0 l/m 6,4 km/h (2 Bft) W-NW 292 0 min 0,0 UV-I 42 W/m 9,7 km/h (2 Bft)
29.11.2022 13:40 8,3 C 8,2 C 8,3 C 96 % 1020,0 hPa 0,0 l/m 4,8 km/h (1 Bft) W-NW 292 0 min 0,0 UV-I 49 W/m 9,7 km/h (2 Bft)
29.11.2022 13:35 8,2 C 8,2 C 8,3 C 96 % 1019,8 hPa 0,0 l/m 4,8 km/h (1 Bft) W 270 0 min 0,0 UV-I 53 W/m 9,7 km/h (2 Bft)
29.11.2022 13:30 8,2 C 8,2 C 8,3 C 96 % 1019,8 hPa 0,0 l/m 3,2 km/h (1 Bft) W-NW 292 0 min 0,0 UV-I 40 W/m 6,4 km/h (2 Bft)
29.11.2022 13:25 8,2 C 8,2 C 8,3 C 96 % 1019,7 hPa 0,0 l/m 4,8 km/h (1 Bft) W 270 0 min 0,0 UV-I 39 W/m 11,3 km/h (2 Bft)
29.11.2022 13:20 8,2 C 8,2 C 8,3 C 96 % 1019,7 hPa 0,0 l/m 6,4 km/h (2 Bft) W 270 0 min 0,0 UV-I 58 W/m 11,3 km/h (2 Bft)
29.11.2022 13:15 8,2 C 8,2 C 8,2 C 96 % 1019,6 hPa 0,0 l/m 4,8 km/h (1 Bft) W 270 0 min 0,0 UV-I 63 W/m 9,7 km/h (2 Bft)
29.11.2022 13:10 8,2 C 8,1 C 8,2 C 96 % 1019,6 hPa 0,0 l/m 4,8 km/h (1 Bft) W 270 0 min 0,0 UV-I 65 W/m 9,7 km/h (2 Bft)
29.11.2022 13:05 8,1 C 8,1 C 8,2 C 97 % 1019,6 hPa 0,0 l/m 6,4 km/h (2 Bft) W 270 0 min 0,0 UV-I 63 W/m 11,3 km/h (2 Bft)
29.11.2022 13:00 8,1 C 8,1 C 8,2 C 97 % 1019,6 hPa 0,0 l/m 4,8 km/h (1 Bft) W-NW 292 0 min 0,0 UV-I 51 W/m 9,7 km/h (2 Bft)
29.11.2022 12:55 8,1 C 8,1 C 8,1 C 97 % 1019,6 hPa 0,0 l/m 6,4 km/h (2 Bft) W 270 0 min 0,0 UV-I 32 W/m 11,3 km/h (2 Bft)
29.11.2022 12:50 8,1 C 8,1 C 8,2 C 97 % 1019,6 hPa 0,0 l/m 4,8 km/h (1 Bft) W 270 0 min 0,0 UV-I 33 W/m 9,7 km/h (2 Bft)
29.11.2022 12:45 8,1 C 8,1 C 8,1 C 97 % 1019,6 hPa 0,0 l/m 6,4 km/h (2 Bft) W 270 0 min 0,0 UV-I 39 W/m 9,7 km/h (2 Bft)
29.11.2022 12:40 8,0 C 8,0 C 8,1 C 97 % 1019,6 hPa 0,0 l/m 6,4 km/h (2 Bft) W 270 0 min 0,0 UV-I 44 W/m 11,3 km/h (2 Bft)
29.11.2022 12:35 8,0 C 7,9 C 8,1 C 97 % 1019,6 hPa 0,0 l/m 9,7 km/h (2 Bft) W 270 0 min 0,0 UV-I 39 W/m 12,9 km/h (3 Bft)
29.11.2022 12:30 7,9 C 7,9 C 8,0 C 97 % 1019,6 hPa 0,0 l/m 6,4 km/h (2 Bft) W 270 0 min 0,0 UV-I 44 W/m 11,3 km/h (2 Bft)
29.11.2022 12:25 7,9 C 7,8 C 7,9 C 97 % 1019,5 hPa 0,0 l/m 4,8 km/h (1 Bft) W 270 0 min 0,0 UV-I 49 W/m 9,7 km/h (2 Bft)
29.11.2022 12:20 7,9 C 7,9 C 7,9 C 97 % 1019,5 hPa 0,0 l/m 8,0 km/h (2 Bft) W 270 0 min 0,0 UV-I 49 W/m 11,3 km/h (2 Bft)
29.11.2022 12:15 7,9 C 7,9 C 7,9 C 97 % 1019,5 hPa 0,0 l/m 6,4 km/h (2 Bft) W 270 0 min 0,0 UV-I 49 W/m 11,3 km/h (2 Bft)
29.11.2022 12:10 7,9 C 7,8 C 7,9 C 97 % 1019,5 hPa 0,0 l/m 6,4 km/h (2 Bft) W-SW 247 0 min 0,0 UV-I 47 W/m 11,3 km/h (2 Bft)
29.11.2022 12:05 7,8 C 7,8 C 7,8 C 97 % 1019,5 hPa 0,0 l/m 6,4 km/h (2 Bft) W 270 0 min 0,0 UV-I 51 W/m 11,3 km/h (2 Bft)
29.11.2022 12:00 7,8 C 7,7 C 7,8 C 97 % 1019,5 hPa 0,0 l/m 6,4 km/h (2 Bft) W 270 0 min 0,0 UV-I 54 W/m 9,7 km/h (2 Bft)
29.11.2022 11:55 7,8 C 7,8 C 7,9 C 97 % 1019,5 hPa 0,0 l/m 6,4 km/h (2 Bft) W-NW 292 0 min 0,0 UV-I 49 W/m 11,3 km/h (2 Bft)
29.11.2022 11:50 7,8 C 7,8 C 7,9 C 97 % 1019,5 hPa 0,0 l/m 4,8 km/h (1 Bft) W 270 0 min 0,0 UV-I 30 W/m 11,3 km/h (2 Bft)
29.11.2022 11:45 7,8 C 7,8 C 7,8 C 97 % 1019,5 hPa 0,0 l/m 6,4 km/h (2 Bft) W 270 0 min 0,0 UV-I 39 W/m 9,7 km/h (2 Bft)
29.11.2022 11:40 7,8 C 7,8 C 7,9 C 97 % 1019,5 hPa 0,0 l/m 6,4 km/h (2 Bft) W 270 0 min 0,0 UV-I 44 W/m 11,3 km/h (2 Bft)
29.11.2022 11:35 7,8 C 7,8 C 7,9 C 97 % 1019,5 hPa 0,0 l/m 6,4 km/h (2 Bft) W 270 0 min 0,0 UV-I 44 W/m 11,3 km/h (2 Bft)
29.11.2022 11:30 7,8 C 7,8 C 7,9 C 97 % 1019,5 hPa 0,0 l/m 6,4 km/h (2 Bft) W-SW 247 0 min 0,0 UV-I 40 W/m 8,0 km/h (2 Bft)
29.11.2022 11:25 7,8 C 7,8 C 7,8 C 97 % 1019,5 hPa 0,0 l/m 4,8 km/h (1 Bft) W 270 0 min 0,0 UV-I 42 W/m 6,4 km/h (2 Bft)
29.11.2022 11:20 7,8 C 7,8 C 7,9 C 97 % 1019,6 hPa 0,0 l/m 4,8 km/h (1 Bft) W-SW 247 0 min 0,0 UV-I 39 W/m 8,0 km/h (2 Bft)
29.11.2022 11:15 7,8 C 7,8 C 7,8 C 97 % 1019,5 hPa 0,0 l/m 4,8 km/h (1 Bft) W 270 0 min 0,0 UV-I 39 W/m 6,4 km/h (2 Bft)
29.11.2022 11:10 7,8 C 7,8 C 7,8 C 97 % 1019,5 hPa 0,0 l/m 4,8 km/h (1 Bft) W 270 0 min 0,0 UV-I 33 W/m 9,7 km/h (2 Bft)
29.11.2022 11:05 7,8 C 7,8 C 7,8 C 97 % 1019,6 hPa 0,0 l/m 4,8 km/h (1 Bft) W-SW 247 0 min 0,0 UV-I 28 W/m 6,4 km/h (2 Bft)
29.11.2022 11:00 7,8 C 7,7 C 7,8 C 97 % 1019,5 hPa 0,0 l/m 3,2 km/h (1 Bft) W 270 0 min 0,0 UV-I 35 W/m 4,8 km/h (1 Bft)
29.11.2022 10:55 7,7 C 7,6 C 7,7 C 97 % 1019,4 hPa 0,0 l/m 1,6 km/h (1 Bft) W 270 0 min 0,0 UV-I 35 W/m 6,4 km/h (2 Bft)
29.11.2022 10:50 7,7 C 7,6 C 7,7 C 97 % 1019,4 hPa 0,0 l/m 0,0 km/h (0 Bft) N 0 0 min 0,0 UV-I 35 W/m 0,0 km/h (0 Bft)
29.11.2022 10:45 7,6 C 7,6 C 7,6 C 97 % 1019,3 hPa 0,0 l/m 0,0 km/h (0 Bft) N 0 0 min 0,0 UV-I 26 W/m 0,0 km/h (0 Bft)
29.11.2022 10:40 7,6 C 7,5 C 7,6 C 97 % 1019,4 hPa 0,0 l/m 0,0 km/h (0 Bft) N 0 0 min 0,0 UV-I 26 W/m 0,0 km/h (0 Bft)
29.11.2022 10:35 7,6 C 7,5 C 7,6 C 97 % 1019,3 hPa 0,0 l/m 0,0 km/h (0 Bft) N 0 0 min 0,0 UV-I 28 W/m 0,0 km/h (0 Bft)
29.11.2022 10:30 7,5 C 7,5 C 7,6 C 97 % 1019,3 hPa 0,0 l/m 0,0 km/h (0 Bft) N 0 0 min 0,0 UV-I 30 W/m 0,0 km/h (0 Bft)
29.11.2022 10:25 7,5 C 7,4 C 7,6 C 97 % 1019,3 hPa 0,0 l/m 0,0 km/h (0 Bft) N 0 0 min 0,0 UV-I 25 W/m 0,0 km/h (0 Bft)
29.11.2022 10:20 7,5 C 7,4 C 7,6 C 97 % 1019,2 hPa 0,0 l/m 0,0 km/h (0 Bft) N 0 0 min 0,0 UV-I 16 W/m 0,0 km/h (0 Bft)
29.11.2022 10:15 7,5 C 7,4 C 7,5 C 97 % 1019,0 hPa 0,0 l/m 0,0 km/h (0 Bft) N 0 0 min 0,0 UV-I 16 W/m 0,0 km/h (0 Bft)
29.11.2022 10:10 7,5 C 7,4 C 7,5 C 97 % 1019,0 hPa 0,0 l/m 0,0 km/h (0 Bft) W 270 0 min 0,0 UV-I 16 W/m 1,6 km/h (1 Bft)
29.11.2022 10:05 7,4 C 7,4 C 7,4 C 97 % 1018,9 hPa 0,0 l/m 0,0 km/h (0 Bft) N 0 0 min 0,0 UV-I 21 W/m 0,0 km/h (0 Bft)
29.11.2022 10:00 7,4 C 7,4 C 7,4 C 97 % 1018,9 hPa 0,0 l/m 0,0 km/h (0 Bft) N 0 0 min 0,0 UV-I 23 W/m 0,0 km/h (0 Bft)
29.11.2022 09:55 7,4 C 7,3 C 7,4 C 97 % 1018,8 hPa 0,0 l/m 0,0 km/h (0 Bft) N 0 0 min 0,0 UV-I 25 W/m 0,0 km/h (0 Bft)
29.11.2022 09:50 7,3 C 7,3 C 7,3 C 97 % 1018,8 hPa 0,0 l/m 0,0 km/h (0 Bft) N 0 0 min 0,0 UV-I 28 W/m 0,0 km/h (0 Bft)
29.11.2022 09:45 7,3 C 7,3 C 7,3 C 97 % 1018,7 hPa 0,0 l/m 0,0 km/h (0 Bft) N 0 0 min 0,0 UV-I 28 W/m 0,0 km/h (0 Bft)
29.11.2022 09:40 7,3 C 7,2 C 7,3 C 97 % 1018,6 hPa 0,0 l/m 0,0 km/h (0 Bft) N 0 0 min 0,0 UV-I 25 W/m 0,0 km/h (0 Bft)
29.11.2022 09:35 7,2 C 7,2 C 7,3 C 97 % 1018,5 hPa 0,0 l/m 0,0 km/h (0 Bft) N 0 0 min 0,0 UV-I 23 W/m 0,0 km/h (0 Bft)
29.11.2022 09:30 7,2 C 7,1 C 7,2 C 97 % 1018,6 hPa 0,0 l/m 0,0 km/h (0 Bft) N 0 0 min 0,0 UV-I 21 W/m 0,0 km/h (0 Bft)
29.11.2022 09:25 7,1 C 7,1 C 7,1 C 97 % 1018,5 hPa 0,0 l/m 0,0 km/h (0 Bft) N 0 0 min 0,0 UV-I 19 W/m 0,0 km/h (0 Bft)
29.11.2022 09:20 7,1 C 7,1 C 7,2 C 97 % 1018,5 hPa 0,0 l/m 0,0 km/h (0 Bft) SW 225 0 min 0,0 UV-I 14 W/m 3,2 km/h (1 Bft)
29.11.2022 09:15 7,1 C 7,1 C 7,1 C 97 % 1018,5 hPa 0,0 l/m 3,2 km/h (1 Bft) SW 225 0 min 0,0 UV-I 14 W/m 3,2 km/h (1 Bft)
29.11.2022 09:10 7,1 C 7,1 C 7,1 C 97 % 1018,5 hPa 0,0 l/m 4,8 km/h (1 Bft) SW 225 0 min 0,0 UV-I 14 W/m 6,4 km/h (2 Bft)
29.11.2022 09:05 7,1 C 7,1 C 7,1 C 97 % 1018,5 hPa 0,0 l/m 6,4 km/h (2 Bft) W-SW 247 0 min 0,0 UV-I 11 W/m 8,0 km/h (2 Bft)
29.11.2022 09:00 7,1 C 7,1 C 7,1 C 97 % 1018,4 hPa 0,0 l/m 4,8 km/h (1 Bft) W 270 0 min 0,0 UV-I 7 W/m 9,7 km/h (2 Bft)
29.11.2022 08:55 7,1 C 7,1 C 7,1 C 97 % 1018,5 hPa 0,0 l/m 6,4 km/h (2 Bft) W 270 0 min 0,0 UV-I 5 W/m 9,7 km/h (2 Bft)
29.11.2022 08:50 7,1 C 7,1 C 7,1 C 97 % 1018,5 hPa 0,0 l/m 6,4 km/h (2 Bft) W 270 0 min 0,0 UV-I 5 W/m 9,7 km/h (2 Bft)
29.11.2022 08:45 7,1 C 7,1 C 7,1 C 97 % 1018,3 hPa 0,0 l/m 6,4 km/h (2 Bft) W 270 0 min 0,0 UV-I 0 W/m 9,7 km/h (2 Bft)
29.11.2022 08:40 7,1 C 7,1 C 7,1 C 97 % 1018,3 hPa 0,0 l/m 3,2 km/h (1 Bft) W 270 0 min 0,0 UV-I 0 W/m 6,4 km/h (2 Bft)
29.11.2022 08:35 7,1 C 7,0 C 7,1 C 97 % 1018,2 hPa 0,0 l/m 0,0 km/h (0 Bft) N 0 0 min 0,0 UV-I 5 W/m 0,0 km/h (0 Bft)
29.11.2022 08:30 7,1 C 7,0 C 7,1 C 97 % 1018,1 hPa 0,0 l/m 0,0 km/h (0 Bft) N 0 0 min 0,0 UV-I 0 W/m 0,0 km/h (0 Bft)
29.11.2022 08:25 7,1 C 7,0 C 7,1 C 96 % 1018,0 hPa 0,0 l/m 0,0 km/h (0 Bft) N 0 0 min 0,0 UV-I 0 W/m 0,0 km/h (0 Bft)
29.11.2022 08:20 7,1 C 7,1 C 7,1 C 96 % 1017,9 hPa 0,0 l/m 1,6 km/h (1 Bft) N 360 0 min 0,0 UV-I 0 W/m 4,8 km/h (1 Bft)
29.11.2022 08:15 7,2 C 7,1 C 7,2 C 96 % 1017,9 hPa 0,0 l/m 1,6 km/h (1 Bft) N 360 0 min 0,0 UV-I 0 W/m 4,8 km/h (1 Bft)
29.11.2022 08:10 7,2 C 7,2 C 7,3 C 96 % 1017,8 hPa 0,0 l/m 1,6 km/h (1 Bft) N-NO 22 0 min 0,0 UV-I 0 W/m 4,8 km/h (1 Bft)
29.11.2022 08:05 7,3 C 7,2 C 7,3 C 96 % 1017,8 hPa 0,0 l/m 3,2 km/h (1 Bft) N-NO 22 0 min 0,0 UV-I 0 W/m 4,8 km/h (1 Bft)
29.11.2022 08:00 7,3 C 7,3 C 7,3 C 96 % 1017,8 hPa 0,0 l/m 0,0 km/h (0 Bft) N-NW 337 0 min 0,0 UV-I 0 W/m 4,8 km/h (1 Bft)
29.11.2022 07:55 7,3 C 7,3 C 7,3 C 96 % 1017,8 hPa 0,0 l/m 0,0 km/h (0 Bft) N 0 0 min 0,0 UV-I 0 W/m 0,0 km/h (0 Bft)
29.11.2022 07:50 7,3 C 7,3 C 7,3 C 96 % 1017,7 hPa 0,0 l/m 0,0 km/h (0 Bft) N 0 0 min 0,0 UV-I 0 W/m 0,0 km/h (0 Bft)
29.11.2022 07:45 7,3 C 7,3 C 7,4 C 97 % 1017,8 hPa 0,0 l/m 0,0 km/h (0 Bft) N 0 0 min 0,0 UV-I 0 W/m 0,0 km/h (0 Bft)
29.11.2022 07:40 7,3 C 7,3 C 7,4 C 97 % 1017,6 hPa 0,0 l/m 0,0 km/h (0 Bft) N 0 0 min 0,0 UV-I 0 W/m 0,0 km/h (0 Bft)
29.11.2022 07:35 7,3 C 7,3 C 7,4 C 97 % 1017,6 hPa 0,0 l/m 0,0 km/h (0 Bft) N 0 0 min 0,0 UV-I 0 W/m 0,0 km/h (0 Bft)
29.11.2022 07:30 7,3 C 7,3 C 7,3 C 97 % 1017,6 hPa 0,0 l/m 0,0 km/h (0 Bft) N 0 0 min 0,0 UV-I 0 W/m 0,0 km/h (0 Bft)
29.11.2022 07:25 7,3 C 7,3 C 7,3 C 97 % 1017,6 hPa 0,0 l/m 0,0 km/h (0 Bft) N 0 0 min 0,0 UV-I 0 W/m 0,0 km/h (0 Bft)
29.11.2022 07:20 7,3 C 7,3 C 7,3 C 97 % 1017,5 hPa 0,0 l/m 0,0 km/h (0 Bft) N 0 0 min 0,0 UV-I 0 W/m 0,0 km/h (0 Bft)
29.11.2022 07:15 7,3 C 7,2 C 7,3 C 97 % 1017,4 hPa 0,0 l/m 0,0 km/h (0 Bft) N 360 0 min 0,0 UV-I 0 W/m 3,2 km/h (1 Bft)
29.11.2022 07:10 7,2 C 7,2 C 7,2 C 97 % 1017,3 hPa 0,0 l/m 0,0 km/h (0 Bft) N 0 0 min 0,0 UV-I 0 W/m 0,0 km/h (0 Bft)
29.11.2022 07:05 7,2 C 7,2 C 7,2 C 97 % 1017,3 hPa 0,0 l/m 0,0 km/h (0 Bft) N 0 0 min 0,0 UV-I 0 W/m 0,0 km/h (0 Bft)
29.11.2022 07:00 7,2 C 7,2 C 7,2 C 97 % 1017,1 hPa 0,0 l/m 0,0 km/h (0 Bft) N-NO 22 0 min 0,0 UV-I 0 W/m 6,4 km/h (2 Bft)
29.11.2022 06:55 7,2 C 7,1 C 7,2 C 97 % 1017,1 hPa 0,0 l/m 0,0 km/h (0 Bft) N 360 0 min 0,0 UV-I 0 W/m 6,4 km/h (2 Bft)
29.11.2022 06:50 7,1 C 7,1 C 7,1 C 97 % 1017,1 hPa 0,0 l/m 0,0 km/h (0 Bft) W-NW 292 0 min 0,0 UV-I 0 W/m 3,2 km/h (1 Bft)
29.11.2022 06:45 7,1 C 7,1 C 7,1 C 97 % 1017,1 hPa 0,0 l/m 0,0 km/h (0 Bft) W-NW 292 0 min 0,0 UV-I 0 W/m 3,2 km/h (1 Bft)
29.11.2022 06:40 7,1 C 6,9 C 7,1 C 97 % 1017,0 hPa 0,0 l/m 0,0 km/h (0 Bft) W-NW 292 0 min 0,0 UV-I 0 W/m 3,2 km/h (1 Bft)
29.11.2022 06:35 6,9 C 6,9 C 6,9 C 96 % 1017,0 hPa 0,0 l/m 3,2 km/h (1 Bft) W-NW 292 0 min 0,0 UV-I 0 W/m 6,4 km/h (2 Bft)
29.11.2022 06:30 6,8 C 6,8 C 6,9 C 96 % 1016,9 hPa 0,0 l/m 1,6 km/h (1 Bft) W-NW 292 0 min 0,0 UV-I 0 W/m 4,8 km/h (1 Bft)
29.11.2022 06:25 6,9 C 6,9 C 7,0 C 96 % 1016,9 hPa 0,0 l/m 0,0 km/h (0 Bft) N 0 0 min 0,0 UV-I 0 W/m 0,0 km/h (0 Bft)
29.11.2022 06:20 7,0 C 7,0 C 7,1 C 96 % 1016,8 hPa 0,0 l/m 0,0 km/h (0 Bft) N 0 0 min 0,0 UV-I 0 W/m 0,0 km/h (0 Bft)
29.11.2022 06:15 7,1 C 7,1 C 7,1 C 96 % 1016,8 hPa 0,0 l/m 0,0 km/h (0 Bft) N 0 0 min 0,0 UV-I 0 W/m 0,0 km/h (0 Bft)
29.11.2022 06:10 7,1 C 6,9 C 7,1 C 96 % 1016,7 hPa 0,0 l/m 0,0 km/h (0 Bft) N 0 0 min 0,0 UV-I 0 W/m 0,0 km/h (0 Bft)
29.11.2022 06:05 6,9 C 6,9 C 7,1 C 96 % 1016,6 hPa 0,0 l/m 0,0 km/h (0 Bft) NW 315 0 min 0,0 UV-I 0 W/m 1,6 km/h (1 Bft)
29.11.2022 06:00 7,1 C 7,1 C 7,3 C 96 % 1016,5 hPa 0,0 l/m 0,0 km/h (0 Bft) N 0 0 min 0,0 UV-I 0 W/m 0,0 km/h (0 Bft)
29.11.2022 05:55 7,3 C 7,3 C 7,4 C 96 % 1016,4 hPa 0,0 l/m 0,0 km/h (0 Bft) N 0 0 min 0,0 UV-I 0 W/m 0,0 km/h (0 Bft)
29.11.2022 05:50 7,4 C 7,4 C 7,6 C 96 % 1016,3 hPa 0,0 l/m 0,0 km/h (0 Bft) N 0 0 min 0,0 UV-I 0 W/m 0,0 km/h (0 Bft)
29.11.2022 05:45 7,6 C 7,6 C 7,7 C 96 % 1016,2 hPa 0,0 l/m 0,0 km/h (0 Bft) N 0 0 min 0,0 UV-I 0 W/m 0,0 km/h (0 Bft)
29.11.2022 05:40 7,7 C 7,7 C 7,8 C 97 % 1016,3 hPa 0,0 l/m 0,0 km/h (0 Bft) N-NW 337 0 min 0,0 UV-I 0 W/m 4,8 km/h (1 Bft)
29.11.2022 05:35 7,7 C 7,7 C 7,8 C 96 % 1016,2 hPa 0,0 l/m 4,8 km/h (1 Bft) NW 315 0 min 0,0 UV-I 0 W/m 8,0 km/h (2 Bft)
29.11.2022 05:30 7,8 C 7,8 C 7,9 C 96 % 1016,2 hPa 0,0 l/m 4,8 km/h (1 Bft) NW 315 0 min 0,0 UV-I 0 W/m 8,0 km/h (2 Bft)
29.11.2022 05:25 7,9 C 7,9 C 8,1 C 97 % 1016,2 hPa 0,0 l/m 3,2 km/h (1 Bft) N-NW 337 0 min 0,0 UV-I 0 W/m 6,4 km/h (2 Bft)
29.11.2022 05:20 8,0 C 8,0 C 8,1 C 97 % 1016,1 hPa 0,0 l/m 3,2 km/h (1 Bft) NW 315 0 min 0,0 UV-I 0 W/m 8,0 km/h (2 Bft)
29.11.2022 05:15 8,1 C 8,1 C 8,1 C 97 % 1016,1 hPa 0,0 l/m 4,8 km/h (1 Bft) NW 315 0 min 0,0 UV-I 0 W/m 9,7 km/h (2 Bft)
29.11.2022 05:10 8,1 C 8,1 C 8,1 C 97 % 1016,1 hPa 0,0 l/m 4,8 km/h (1 Bft) NW 315 0 min 0,0 UV-I 0 W/m 9,7 km/h (2 Bft)
29.11.2022 05:05 8,1 C 8,1 C 8,1 C 97 % 1016,1 hPa 0,0 l/m 6,4 km/h (2 Bft) NW 315 0 min 0,0 UV-I 0 W/m 11,3 km/h (2 Bft)
29.11.2022 05:00 8,1 C 8,1 C 8,1 C 97 % 1015,9 hPa 0,0 l/m 4,8 km/h (1 Bft) NW 315 0 min 0,0 UV-I 0 W/m 12,9 km/h (3 Bft)
29.11.2022 04:55 8,1 C 8,1 C 8,1 C 97 % 1015,9 hPa 0,0 l/m 6,4 km/h (2 Bft) NW 315 0 min 0,0 UV-I 0 W/m 9,7 km/h (2 Bft)
29.11.2022 04:50 8,1 C 8,1 C 8,1 C 97 % 1015,9 hPa 0,0 l/m 6,4 km/h (2 Bft) NW 315 0 min 0,0 UV-I 0 W/m 12,9 km/h (3 Bft)
29.11.2022 04:45 8,1 C 8,1 C 8,1 C 97 % 1015,9 hPa 0,0 l/m 4,8 km/h (1 Bft) W-NW 292 0 min 0,0 UV-I 0 W/m 8,0 km/h (2 Bft)
29.11.2022 04:40 8,1 C 8,1 C 8,2 C 97 % 1015,9 hPa 0,0 l/m 1,6 km/h (1 Bft) NW 315 0 min 0,0 UV-I 0 W/m 6,4 km/h (2 Bft)
29.11.2022 04:35 8,1 C 8,1 C 8,2 C 97 % 1015,7 hPa 0,0 l/m 3,2 km/h (1 Bft) NW 315 0 min 0,0 UV-I 0 W/m 6,4 km/h (2 Bft)
29.11.2022 04:30 8,1 C 8,1 C 8,1 C 97 % 1015,7 hPa 0,0 l/m 3,2 km/h (1 Bft) NW 315 0 min 0,0 UV-I 0 W/m 8,0 km/h (2 Bft)
29.11.2022 04:25 8,1 C 8,1 C 8,1 C 97 % 1015,7 hPa 0,0 l/m 3,2 km/h (1 Bft) NW 315 0 min 0,0 UV-I 0 W/m 6,4 km/h (2 Bft)
29.11.2022 04:20 8,2 C 8,1 C 8,2 C 97 % 1015,7 hPa 0,0 l/m 3,2 km/h (1 Bft) NW 315 0 min 0,0 UV-I 0 W/m 6,4 km/h (2 Bft)
29.11.2022 04:15 8,2 C 8,2 C 8,2 C 97 % 1015,6 hPa 0,0 l/m 4,8 km/h (1 Bft) NW 315 0 min 0,0 UV-I 0 W/m 8,0 km/h (2 Bft)
29.11.2022 04:10 8,2 C 8,2 C 8,3 C 97 % 1015,5 hPa 0,0 l/m 1,6 km/h (1 Bft) N-NW 337 0 min 0,0 UV-I 0 W/m 6,4 km/h (2 Bft)
29.11.2022 04:05 8,3 C 8,3 C 8,3 C 97 % 1015,5 hPa 0,0 l/m 1,6 km/h (1 Bft) N-NW 337 0 min 0,0 UV-I 0 W/m 6,4 km/h (2 Bft)
29.11.2022 04:00 8,3 C 8,3 C 8,3 C 97 % 1015,4 hPa 0,0 l/m 3,2 km/h (1 Bft) NW 315 0 min 0,0 UV-I 0 W/m 6,4 km/h (2 Bft)
29.11.2022 03:55 8,3 C 8,3 C 8,3 C 97 % 1015,4 hPa 0,0 l/m 1,6 km/h (1 Bft) NW 315 0 min 0,0 UV-I 0 W/m 4,8 km/h (1 Bft)
29.11.2022 03:50 8,3 C 8,2 C 8,3 C 97 % 1015,4 hPa 0,0 l/m 4,8 km/h (1 Bft) W-NW 292 0 min 0,0 UV-I 0 W/m 9,7 km/h (2 Bft)
29.11.2022 03:45 8,2 C 8,2 C 8,3 C 97 % 1015,3 hPa 0,0 l/m 3,2 km/h (1 Bft) W-NW 292 0 min 0,0 UV-I 0 W/m 6,4 km/h (2 Bft)
29.11.2022 03:40 8,2 C 8,2 C 8,3 C 97 % 1015,4 hPa 0,0 l/m 4,8 km/h (1 Bft) W 270 0 min 0,0 UV-I 0 W/m 9,7 km/h (2 Bft)
29.11.2022 03:35 8,3 C 8,2 C 8,3 C 97 % 1015,3 hPa 0,0 l/m 4,8 km/h (1 Bft) W-NW 292 0 min 0,0 UV-I 0 W/m 8,0 km/h (2 Bft)
29.11.2022 03:30 8,3 C 8,3 C 8,3 C 97 % 1015,2 hPa 0,0 l/m 4,8 km/h (1 Bft) W-NW 292 0 min 0,0 UV-I 0 W/m 11,3 km/h (2 Bft)
29.11.2022 03:25 8,3 C 8,3 C 8,3 C 97 % 1015,2 hPa 0,0 l/m 4,8 km/h (1 Bft) W-NW 292 0 min 0,0 UV-I 0 W/m 8,0 km/h (2 Bft)
29.11.2022 03:20 8,3 C 8,3 C 8,3 C 97 % 1015,2 hPa 0,0 l/m 3,2 km/h (1 Bft) W-NW 292 0 min 0,0 UV-I 0 W/m 8,0 km/h (2 Bft)
29.11.2022 03:15 8,3 C 8,2 C 8,3 C 97 % 1015,2 hPa 0,0 l/m 6,4 km/h (2 Bft) W-NW 292 0 min 0,0 UV-I 0 W/m 11,3 km/h (2 Bft)
29.11.2022 03:10 8,3 C 8,2 C 8,3 C 97 % 1015,2 hPa 0,0 l/m 8,0 km/h (2 Bft) W-NW 292 0 min 0,0 UV-I 0 W/m 12,9 km/h (3 Bft)
29.11.2022 03:05 8,3 C 8,2 C 8,3 C 97 % 1015,2 hPa 0,0 l/m 8,0 km/h (2 Bft) W-NW 292 0 min 0,0 UV-I 0 W/m 12,9 km/h (3 Bft)
29.11.2022 03:00 8,2 C 8,2 C 8,3 C 97 % 1015,1 hPa 0,0 l/m 6,4 km/h (2 Bft) W-NW 292 0 min 0,0 UV-I 0 W/m 12,9 km/h (3 Bft)
29.11.2022 02:55 8,3 C 8,2 C 8,3 C 97 % 1015,2 hPa 0,0 l/m 8,0 km/h (2 Bft) W-NW 292 0 min 0,0 UV-I 0 W/m 12,9 km/h (3 Bft)
29.11.2022 02:50 8,2 C 8,2 C 8,2 C 97 % 1015,2 hPa 0,0 l/m 8,0 km/h (2 Bft) W-NW 292 0 min 0,0 UV-I 0 W/m 14,5 km/h (3 Bft)
29.11.2022 02:45 8,2 C 8,2 C 8,2 C 97 % 1015,2 hPa 0,0 l/m 8,0 km/h (2 Bft) W 270 0 min 0,0 UV-I 0 W/m 11,3 km/h (2 Bft)
29.11.2022 02:40 8,2 C 8,2 C 8,2 C 97 % 1015,1 hPa 0,0 l/m 6,4 km/h (2 Bft) W 270 0 min 0,0 UV-I 0 W/m 11,3 km/h (2 Bft)
29.11.2022 02:35 8,2 C 8,2 C 8,2 C 97 % 1015,1 hPa 0,0 l/m 6,4 km/h (2 Bft) W 270 0 min 0,0 UV-I 0 W/m 11,3 km/h (2 Bft)
29.11.2022 02:30 8,2 C 8,2 C 8,2 C 97 % 1015,1 hPa 0,0 l/m 6,4 km/h (2 Bft) W-NW 292 0 min 0,0 UV-I 0 W/m 9,7 km/h (2 Bft)
29.11.2022 02:25 8,2 C 8,2 C 8,2 C 97 % 1015,0 hPa 0,0 l/m 4,8 km/h (1 Bft) W-NW 292 0 min 0,0 UV-I 0 W/m 9,7 km/h (2 Bft)
29.11.2022 02:20 8,2 C 8,2 C 8,2 C 97 % 1014,9 hPa 0,0 l/m 4,8 km/h (1 Bft) W 270 0 min 0,0 UV-I 0 W/m 8,0 km/h (2 Bft)
29.11.2022 02:15 8,2 C 8,2 C 8,2 C 97 % 1014,9 hPa 0,0 l/m 6,4 km/h (2 Bft) W 270 0 min 0,0 UV-I 0 W/m 11,3 km/h (2 Bft)
29.11.2022 02:10 8,2 C 8,1 C 8,2 C 97 % 1015,0 hPa 0,0 l/m 6,4 km/h (2 Bft) W 270 0 min 0,0 UV-I 0 W/m 9,7 km/h (2 Bft)
29.11.2022 02:05 8,2 C 8,1 C 8,2 C 97 % 1015,0 hPa 0,0 l/m 6,4 km/h (2 Bft) W 270 0 min 0,0 UV-I 0 W/m 11,3 km/h (2 Bft)
29.11.2022 02:00 8,2 C 8,1 C 8,2 C 97 % 1014,9 hPa 0,0 l/m 6,4 km/h (2 Bft) W 270 0 min 0,0 UV-I 0 W/m 11,3 km/h (2 Bft)
29.11.2022 01:55 8,2 C 8,1 C 8,2 C 97 % 1014,9 hPa 0,2 l/m 6,4 km/h (2 Bft) W-NW 292 0 min 0,0 UV-I 0 W/m 11,3 km/h (2 Bft)
29.11.2022 01:50 8,2 C 8,1 C 8,2 C 97 % 1014,9 hPa 0,0 l/m 6,4 km/h (2 Bft) W-NW 292 0 min 0,0 UV-I 0 W/m 11,3 km/h (2 Bft)
29.11.2022 01:45 8,2 C 8,1 C 8,2 C 97 % 1014,8 hPa 0,0 l/m 4,8 km/h (1 Bft) W-NW 292 0 min 0,0 UV-I 0 W/m 9,7 km/h (2 Bft)
29.11.2022 01:40 8,2 C 8,1 C 8,2 C 97 % 1014,8 hPa 0,0 l/m 4,8 km/h (1 Bft) W 270 0 min 0,0 UV-I 0 W/m 9,7 km/h (2 Bft)
29.11.2022 01:35 8,2 C 8,2 C 8,2 C 97 % 1014,9 hPa 0,0 l/m 4,8 km/h (1 Bft) W 270 0 min 0,0 UV-I 0 W/m 9,7 km/h (2 Bft)
29.11.2022 01:30 8,2 C 8,2 C 8,2 C 97 % 1014,8 hPa 0,0 l/m 4,8 km/h (1 Bft) W 270 0 min 0,0 UV-I 0 W/m 9,7 km/h (2 Bft)
29.11.2022 01:25 8,2 C 8,2 C 8,2 C 97 % 1014,9 hPa 0,0 l/m 4,8 km/h (1 Bft) W 270 0 min 0,0 UV-I 0 W/m 11,3 km/h (2 Bft)
29.11.2022 01:20 8,2 C 8,2 C 8,2 C 96 % 1014,8 hPa 0,0 l/m 6,4 km/h (2 Bft) W 270 0 min 0,0 UV-I 0 W/m 11,3 km/h (2 Bft)
29.11.2022 01:15 8,2 C 8,2 C 8,2 C 97 % 1014,9 hPa 0,0 l/m 6,4 km/h (2 Bft) W 270 0 min 0,0 UV-I 0 W/m 11,3 km/h (2 Bft)
29.11.2022 01:10 8,2 C 8,2 C 8,2 C 97 % 1014,9 hPa 0,0 l/m 8,0 km/h (2 Bft) W-SW 247 0 min 0,0 UV-I 0 W/m 11,3 km/h (2 Bft)
29.11.2022 01:05 8,2 C 8,2 C 8,2 C 96 % 1014,9 hPa 0,0 l/m 9,7 km/h (2 Bft) W-SW 247 0 min 0,0 UV-I 0 W/m 12,9 km/h (3 Bft)
29.11.2022 01:00 8,2 C 8,2 C 8,2 C 96 % 1014,9 hPa 0,0 l/m 8,0 km/h (2 Bft) W 270 0 min 0,0 UV-I 0 W/m 11,3 km/h (2 Bft)
29.11.2022 00:55 8,2 C 8,2 C 8,2 C 96 % 1014,8 hPa 0,0 l/m 8,0 km/h (2 Bft) W-SW 247 0 min 0,0 UV-I 0 W/m 12,9 km/h (3 Bft)
29.11.2022 00:50 8,2 C 8,2 C 8,2 C 96 % 1014,9 hPa 0,0 l/m 6,4 km/h (2 Bft) W-SW 247 0 min 0,0 UV-I 0 W/m 12,9 km/h (3 Bft)
29.11.2022 00:45 8,2 C 8,2 C 8,2 C 96 % 1014,9 hPa 0,0 l/m 6,4 km/h (2 Bft) SW 225 0 min 0,0 UV-I 0 W/m 12,9 km/h (3 Bft)
29.11.2022 00:40 8,2 C 8,2 C 8,2 C 96 % 1014,8 hPa 0,0 l/m 6,4 km/h (2 Bft) W-SW 247 0 min 0,0 UV-I 0 W/m 8,0 km/h (2 Bft)
29.11.2022 00:35 8,2 C 8,2 C 8,2 C 96 % 1014,8 hPa 0,0 l/m 4,8 km/h (1 Bft) SW 225 0 min 0,0 UV-I 0 W/m 6,4 km/h (2 Bft)
29.11.2022 00:30 8,2 C 8,1 C 8,2 C 96 % 1014,8 hPa 0,0 l/m 3,2 km/h (1 Bft) SW 225 0 min 0,0 UV-I 0 W/m 6,4 km/h (2 Bft)
29.11.2022 00:25 8,2 C 8,1 C 8,2 C 96 % 1014,7 hPa 0,0 l/m 3,2 km/h (1 Bft) SW 225 0 min 0,0 UV-I 0 W/m 4,8 km/h (1 Bft)
29.11.2022 00:20 8,2 C 8,2 C 8,2 C 96 % 1014,7 hPa 0,0 l/m 3,2 km/h (1 Bft) SW 225 0 min 0,0 UV-I 0 W/m 4,8 km/h (1 Bft)
29.11.2022 00:15 8,2 C 8,2 C 8,2 C 96 % 1014,7 hPa 0,2 l/m 4,8 km/h (1 Bft) SW 225 0 min 0,0 UV-I 0 W/m 6,4 km/h (2 Bft)
29.11.2022 00:10 8,2 C 8,2 C 8,2 C 96 % 1014,7 hPa 0,0 l/m 4,8 km/h (1 Bft) SW 225 0 min 0,0 UV-I 0 W/m 8,0 km/h (2 Bft)
29.11.2022 00:05 8,2 C 8,2 C 8,2 C 96 % 1014,6 hPa 0,0 l/m 6,4 km/h (2 Bft) SW 225 0 min 0,0 UV-I 0 W/m 8,0 km/h (2 Bft)
29.11.2022 00:00 8,2 C 8,2 C 8,2 C 96 % 1014,7 hPa 0,0 l/m 6,4 km/h (2 Bft) SW 225 0 min 0,0 UV-I 0 W/m 9,7 km/h (2 Bft)
_ Min-Zeit 19:35 19:35 19:35 14:45 00:05 - 05:40 - - - - - 05:45
Minimum _ 5,6 C 5,6 C 5,7 C 95 % 1014,6 hPa - 0,0 km/h (0 Bft) - - - - - 0,0 km/h (0 Bft)
_ Max-Zeit 02:55 03:20 02:55 01:10 20:10 00:15 01:05 - - 00:00 00:00 13:10 02:50
Maximum _ 8,3 C 8,3 C 8,3 C 97 % 1021,8 hPa 0,2 l/m 9,7 km/h
W-SW (2 Bft)
- - 0 min 0,0 UV-I 65 W/m 14,5 km/h
W-NW (3 Bft)
Durchschnitt _ 7,6 C 7,6 C 7,7 C 96 % 1018,4 hPa #0,4 l/m 3,8 km/h (1 Bft) W - #0 min. 0,0 UV-I 29 W/m 7,1 km/h (2 Bft)